Observations for PARMA, Italy (LIMP)

LIMP 180650Z 24004KT CAVOK 23/18 Q1016  
LIMP 180550Z 26003KT CAVOK 21/17 Q1016  
LIMP 180500Z 25003KT CAVOK 19/17 Q1016
LIMP 171850Z 10004KT CAVOK 27/18 Q1014  
LIMP 171750Z 09003KT CAVOK 28/19 Q1013  
LIMP 171650Z 09005KT 9999 FEW030 29/19 Q1014
LIMP 171550Z 09005KT 9999 FEW030 29/19 Q1013
LIMP 171450Z 07004KT 9999 FEW030 30/17 Q1014
LIMP 171350Z 09005KT CAVOK 30/17 Q1014  
LIMP 171250Z 09007KT 9999 FEW030 30/18 Q1015
LIMP 171150Z 07008KT 030V110 9999 FEW030 29/18 Q1015
LIMP 171050Z VRB05KT 9999 FEW030 29/18 Q1016
LIMP 170950Z 10004KT 9999 FEW040 27/18 Q1016
LIMP 170850Z 10007KT CAVOK 26/17 Q1016  
LIMP 170750Z VRB02KT CAVOK 26/16 Q1016  
LIMP 170650Z 23003KT 9999 FEW060 23/14 Q1016